sensor_id;sensor_type;location;lat;lon;timestamp;temperature;humidity
34137;DHT22;20414;50.860;4.382;2022-11-20T00:01:08;13.70;73.50
34137;DHT22;20414;50.860;4.382;2022-11-20T00:03:35;13.70;73.50
34137;DHT22;20414;50.860;4.382;2022-11-20T00:06:13;13.70;73.50
34137;DHT22;20414;50.860;4.382;2022-11-20T00:08:39;13.70;73.50
34137;DHT22;20414;50.860;4.382;2022-11-20T00:11:13;13.70;73.50
34137;DHT22;20414;50.860;4.382;2022-11-20T00:13:39;13.70;73.50
34137;DHT22;20414;50.860;4.382;2022-11-20T00:16:06;13.70;73.50
34137;DHT22;20414;50.860;4.382;2022-11-20T00:18:33;13.70;73.60
34137;DHT22;20414;50.860;4.382;2022-11-20T00:21:10;13.70;73.60
34137;DHT22;20414;50.860;4.382;2022-11-20T00:23:36;13.70;73.60
34137;DHT22;20414;50.860;4.382;2022-11-20T00:26:06;13.70;73.60
34137;DHT22;20414;50.860;4.382;2022-11-20T00:28:32;13.70;73.60
34137;DHT22;20414;50.860;4.382;2022-11-20T00:31:12;13.70;73.60
34137;DHT22;20414;50.860;4.382;2022-11-20T00:33:38;13.70;73.60
34137;DHT22;20414;50.860;4.382;2022-11-20T00:36:06;13.70;73.60
34137;DHT22;20414;50.860;4.382;2022-11-20T00:38:32;13.70;73.60
34137;DHT22;20414;50.860;4.382;2022-11-20T00:41:00;13.70;73.60
34137;DHT22;20414;50.860;4.382;2022-11-20T00:43:26;13.70;73.60
34137;DHT22;20414;50.860;4.382;2022-11-20T00:46:13;13.70;73.60
34137;DHT22;20414;50.860;4.382;2022-11-20T00:48:39;13.70;73.60
34137;DHT22;20414;50.860;4.382;2022-11-20T00:51:05;13.70;73.60
34137;DHT22;20414;50.860;4.382;2022-11-20T00:53:31;13.70;73.60
34137;DHT22;20414;50.860;4.382;2022-11-20T00:55:59;13.70;73.60
34137;DHT22;20414;50.860;4.382;2022-11-20T00:58:29;13.70;73.60
34137;DHT22;20414;50.860;4.382;2022-11-20T01:01:04;13.70;73.60
34137;DHT22;20414;50.860;4.382;2022-11-20T01:03:32;13.70;73.60
34137;DHT22;20414;50.860;4.382;2022-11-20T01:06:05;13.70;73.60
34137;DHT22;20414;50.860;4.382;2022-11-20T01:08:33;13.70;73.60
34137;DHT22;20414;50.860;4.382;2022-11-20T01:11:09;13.70;73.70
34137;DHT22;20414;50.860;4.382;2022-11-20T01:13:35;13.70;73.70
34137;DHT22;20414;50.860;4.382;2022-11-20T01:18:30;13.70;73.70
34137;DHT22;20414;50.860;4.382;2022-11-20T01:21:01;13.70;73.70
34137;DHT22;20414;50.860;4.382;2022-11-20T01:23:34;13.60;73.60
34137;DHT22;20414;50.860;4.382;2022-11-20T01:26:02;13.60;73.60
34137;DHT22;20414;50.860;4.382;2022-11-20T01:28:28;13.60;73.60
34137;DHT22;20414;50.860;4.382;2022-11-20T01:30:54;13.60;73.60
34137;DHT22;20414;50.860;4.382;2022-11-20T01:33:20;13.60;73.70
34137;DHT22;20414;50.860;4.382;2022-11-20T01:35:45;13.60;73.70
34137;DHT22;20414;50.860;4.382;2022-11-20T01:38:11;13.60;73.70
34137;DHT22;20414;50.860;4.382;2022-11-20T01:40:37;13.60;73.70
34137;DHT22;20414;50.860;4.382;2022-11-20T01:43:18;13.60;73.70
34137;DHT22;20414;50.860;4.382;2022-11-20T01:48:24;13.60;73.70
34137;DHT22;20414;50.860;4.382;2022-11-20T01:50:52;13.60;74.40
34137;DHT22;20414;50.860;4.382;2022-11-20T01:53:22;13.60;73.70
34137;DHT22;20414;50.860;4.382;2022-11-20T01:55:52;13.60;73.70
34137;DHT22;20414;50.860;4.382;2022-11-20T01:58:22;13.60;73.70
34137;DHT22;20414;50.860;4.382;2022-11-20T02:00:50;13.60;73.70
34137;DHT22;20414;50.860;4.382;2022-11-20T02:03:17;13.60;73.70
34137;DHT22;20414;50.860;4.382;2022-11-20T02:05:51;13.70;73.70
34137;DHT22;20414;50.860;4.382;2022-11-20T02:08:20;13.60;73.70
34137;DHT22;20414;50.860;4.382;2022-11-20T02:10:46;13.60;73.70
34137;DHT22;20414;50.860;4.382;2022-11-20T02:13:12;13.70;73.80
34137;DHT22;20414;50.860;4.382;2022-11-20T02:15:56;13.60;73.70
34137;DHT22;20414;50.860;4.382;2022-11-20T02:18:23;13.60;73.70
34137;DHT22;20414;50.860;4.382;2022-11-20T02:20:54;13.60;73.70
34137;DHT22;20414;50.860;4.382;2022-11-20T02:25:50;13.60;73.70
34137;DHT22;20414;50.860;4.382;2022-11-20T02:28:17;13.60;73.70
34137;DHT22;20414;50.860;4.382;2022-11-20T02:30:43;13.60;73.70
34137;DHT22;20414;50.860;4.382;2022-11-20T02:33:09;13.60;73.70
34137;DHT22;20414;50.860;4.382;2022-11-20T02:38:02;13.60;73.70
34137;DHT22;20414;50.860;4.382;2022-11-20T02:40:28;13.60;73.70
34137;DHT22;20414;50.860;4.382;2022-11-20T02:42:55;13.60;73.80
34137;DHT22;20414;50.860;4.382;2022-11-20T02:45:21;13.60;73.80
34137;DHT22;20414;50.860;4.382;2022-11-20T02:47:48;13.60;73.70
34137;DHT22;20414;50.860;4.382;2022-11-20T02:50:14;13.60;73.80
34137;DHT22;20414;50.860;4.382;2022-11-20T02:52:39;13.60;73.70
34137;DHT22;20414;50.860;4.382;2022-11-20T02:55:06;13.60;73.80
34137;DHT22;20414;50.860;4.382;2022-11-20T02:57:31;13.60;73.70
34137;DHT22;20414;50.860;4.382;2022-11-20T02:59:57;13.60;73.80
34137;DHT22;20414;50.860;4.382;2022-11-20T03:02:23;13.60;73.80
34137;DHT22;20414;50.860;4.382;2022-11-20T03:04:48;13.60;73.80
34137;DHT22;20414;50.860;4.382;2022-11-20T03:07:14;13.60;73.80
34137;DHT22;20414;50.860;4.382;2022-11-20T03:09:39;13.60;73.80
34137;DHT22;20414;50.860;4.382;2022-11-20T03:12:05;13.60;73.80
34137;DHT22;20414;50.860;4.382;2022-11-20T03:14:32;13.60;73.80
34137;DHT22;20414;50.860;4.382;2022-11-20T03:16:58;13.60;73.80
34137;DHT22;20414;50.860;4.382;2022-11-20T03:19:23;13.60;73.80
34137;DHT22;20414;50.860;4.382;2022-11-20T03:21:49;13.50;73.70
34137;DHT22;20414;50.860;4.382;2022-11-20T03:24:15;13.50;73.80
34137;DHT22;20414;50.860;4.382;2022-11-20T03:26:41;13.50;73.70
34137;DHT22;20414;50.860;4.382;2022-11-20T03:29:07;13.60;73.90
34137;DHT22;20414;50.860;4.382;2022-11-20T03:31:38;13.50;73.80
34137;DHT22;20414;50.860;4.382;2022-11-20T03:34:06;13.50;73.80
34137;DHT22;20414;50.860;4.382;2022-11-20T03:36:32;13.60;73.80
34137;DHT22;20414;50.860;4.382;2022-11-20T03:38:59;13.60;73.80
34137;DHT22;20414;50.860;4.382;2022-11-20T03:41:27;13.50;73.80
34137;DHT22;20414;50.860;4.382;2022-11-20T03:43:59;13.50;73.80
34137;DHT22;20414;50.860;4.382;2022-11-20T03:46:26;13.60;73.80
34137;DHT22;20414;50.860;4.382;2022-11-20T03:48:52;13.60;73.90
34137;DHT22;20414;50.860;4.382;2022-11-20T03:51:22;13.50;73.80
34137;DHT22;20414;50.860;4.382;2022-11-20T03:53:50;13.50;74.50
34137;DHT22;20414;50.860;4.382;2022-11-20T03:56:18;13.50;73.80
34137;DHT22;20414;50.860;4.382;2022-11-20T03:58:44;13.50;73.80
34137;DHT22;20414;50.860;4.382;2022-11-20T04:01:15;13.50;73.80
34137;DHT22;20414;50.860;4.382;2022-11-20T04:03:42;13.50;73.80
34137;DHT22;20414;50.860;4.382;2022-11-20T04:06:18;13.50;73.80
34137;DHT22;20414;50.860;4.382;2022-11-20T04:08:44;13.50;73.80
34137;DHT22;20414;50.860;4.382;2022-11-20T04:11:30;13.50;73.80
34137;DHT22;20414;50.860;4.382;2022-11-20T04:13:58;13.50;73.80
34137;DHT22;20414;50.860;4.382;2022-11-20T04:16:25;13.50;73.80
34137;DHT22;20414;50.860;4.382;2022-11-20T04:18:55;13.50;73.80
34137;DHT22;20414;50.860;4.382;2022-11-20T04:21:22;13.50;73.90
34137;DHT22;20414;50.860;4.382;2022-11-20T04:23:48;13.50;73.90
34137;DHT22;20414;50.860;4.382;2022-11-20T04:26:14;13.50;73.80
34137;DHT22;20414;50.860;4.382;2022-11-20T04:28:40;13.50;73.80
34137;DHT22;20414;50.860;4.382;2022-11-20T04:31:14;13.50;74.60
34137;DHT22;20414;50.860;4.382;2022-11-20T04:33:40;13.50;73.90
34137;DHT22;20414;50.860;4.382;2022-11-20T04:36:10;13.50;73.90
34137;DHT22;20414;50.860;4.382;2022-11-20T04:38:36;13.50;73.90
34137;DHT22;20414;50.860;4.382;2022-11-20T04:41:05;13.50;73.90
34137;DHT22;20414;50.860;4.382;2022-11-20T04:43:32;13.50;73.90
34137;DHT22;20414;50.860;4.382;2022-11-20T04:45:58;13.50;73.90
34137;DHT22;20414;50.860;4.382;2022-11-20T04:48:25;13.50;73.90
34137;DHT22;20414;50.860;4.382;2022-11-20T04:50:51;13.50;73.90
34137;DHT22;20414;50.860;4.382;2022-11-20T04:53:18;13.50;73.90
34137;DHT22;20414;50.860;4.382;2022-11-20T04:55:43;13.50;74.00
34137;DHT22;20414;50.860;4.382;2022-11-20T04:58:09;13.50;74.00
34137;DHT22;20414;50.860;4.382;2022-11-20T05:00:35;13.50;74.00
34137;DHT22;20414;50.860;4.382;2022-11-20T05:03:00;13.50;74.00
34137;DHT22;20414;50.860;4.382;2022-11-20T05:05:26;13.50;74.00
34137;DHT22;20414;50.860;4.382;2022-11-20T05:07:52;13.50;73.90
34137;DHT22;20414;50.860;4.382;2022-11-20T05:10:17;13.50;74.00
34137;DHT22;20414;50.860;4.382;2022-11-20T05:12:43;13.50;73.90
34137;DHT22;20414;50.860;4.382;2022-11-20T05:15:09;13.50;73.90
34137;DHT22;20414;50.860;4.382;2022-11-20T05:17:35;13.50;74.00
34137;DHT22;20414;50.860;4.382;2022-11-20T05:20:00;13.50;74.00
34137;DHT22;20414;50.860;4.382;2022-11-20T05:22:26;13.50;73.90
34137;DHT22;20414;50.860;4.382;2022-11-20T05:24:51;13.50;74.00
34137;DHT22;20414;50.860;4.382;2022-11-20T05:27:17;13.50;74.00
34137;DHT22;20414;50.860;4.382;2022-11-20T05:29:43;13.50;74.00
34137;DHT22;20414;50.860;4.382;2022-11-20T05:32:08;13.50;74.00
34137;DHT22;20414;50.860;4.382;2022-11-20T05:34:35;13.50;74.00
34137;DHT22;20414;50.860;4.382;2022-11-20T05:37:01;13.50;74.00
34137;DHT22;20414;50.860;4.382;2022-11-20T05:39:27;13.50;74.00
34137;DHT22;20414;50.860;4.382;2022-11-20T05:41:53;13.50;74.00
34137;DHT22;20414;50.860;4.382;2022-11-20T05:44:39;13.40;74.00
34137;DHT22;20414;50.860;4.382;2022-11-20T05:47:05;13.40;73.90
34137;DHT22;20414;50.860;4.382;2022-11-20T05:49:31;13.40;74.00
34137;DHT22;20414;50.860;4.382;2022-11-20T05:51:56;13.40;74.00
34137;DHT22;20414;50.860;4.382;2022-11-20T05:54:22;13.40;73.90
34137;DHT22;20414;50.860;4.382;2022-11-20T05:56:48;13.40;73.90
34137;DHT22;20414;50.860;4.382;2022-11-20T05:59:13;13.50;74.00
34137;DHT22;20414;50.860;4.382;2022-11-20T06:01:39;13.50;74.00
34137;DHT22;20414;50.860;4.382;2022-11-20T06:04:04;13.40;73.90
34137;DHT22;20414;50.860;4.382;2022-11-20T06:06:30;13.40;73.90
34137;DHT22;20414;50.860;4.382;2022-11-20T06:08:56;13.40;73.90
34137;DHT22;20414;50.860;4.382;2022-11-20T06:11:24;13.40;74.00
34137;DHT22;20414;50.860;4.382;2022-11-20T06:13:50;13.40;74.00
34137;DHT22;20414;50.860;4.382;2022-11-20T06:16:17;13.40;74.00
34137;DHT22;20414;50.860;4.382;2022-11-20T06:18:43;13.40;74.00
34137;DHT22;20414;50.860;4.382;2022-11-20T06:21:15;13.40;74.00
34137;DHT22;20414;50.860;4.382;2022-11-20T06:23:43;13.40;74.10
34137;DHT22;20414;50.860;4.382;2022-11-20T06:26:14;13.50;74.10
34137;DHT22;20414;50.860;4.382;2022-11-20T06:28:40;13.40;74.00
34137;DHT22;20414;50.860;4.382;2022-11-20T06:31:07;13.40;74.00
34137;DHT22;20414;50.860;4.382;2022-11-20T06:33:33;13.40;74.00
34137;DHT22;20414;50.860;4.382;2022-11-20T06:36:00;13.40;74.00
34137;DHT22;20414;50.860;4.382;2022-11-20T06:38:27;13.40;74.00
34137;DHT22;20414;50.860;4.382;2022-11-20T06:40:53;13.40;74.00
34137;DHT22;20414;50.860;4.382;2022-11-20T06:43:19;13.40;74.10
34137;DHT22;20414;50.860;4.382;2022-11-20T06:45:44;13.40;74.00
34137;DHT22;20414;50.860;4.382;2022-11-20T06:48:10;13.40;74.10
34137;DHT22;20414;50.860;4.382;2022-11-20T06:50:39;13.40;74.10
34137;DHT22;20414;50.860;4.382;2022-11-20T06:53:05;13.40;74.00
34137;DHT22;20414;50.860;4.382;2022-11-20T06:55:31;13.40;74.00
34137;DHT22;20414;50.860;4.382;2022-11-20T06:57:57;13.40;74.10
34137;DHT22;20414;50.860;4.382;2022-11-20T07:00:23;13.40;74.10
34137;DHT22;20414;50.860;4.382;2022-11-20T07:02:49;13.40;74.00
34137;DHT22;20414;50.860;4.382;2022-11-20T07:05:15;13.40;74.00
34137;DHT22;20414;50.860;4.382;2022-11-20T07:07:41;13.40;74.10
34137;DHT22;20414;50.860;4.382;2022-11-20T07:10:08;13.40;74.10
34137;DHT22;20414;50.860;4.382;2022-11-20T07:12:33;13.40;74.10
34137;DHT22;20414;50.860;4.382;2022-11-20T07:14:59;13.40;74.10
34137;DHT22;20414;50.860;4.382;2022-11-20T07:17:25;13.40;74.10
34137;DHT22;20414;50.860;4.382;2022-11-20T07:19:50;13.40;74.10
34137;DHT22;20414;50.860;4.382;2022-11-20T07:22:16;13.40;74.10
34137;DHT22;20414;50.860;4.382;2022-11-20T07:24:42;13.40;74.10
34137;DHT22;20414;50.860;4.382;2022-11-20T07:27:07;13.40;74.10
34137;DHT22;20414;50.860;4.382;2022-11-20T07:29:33;13.40;74.10
34137;DHT22;20414;50.860;4.382;2022-11-20T07:31:59;13.40;74.10
34137;DHT22;20414;50.860;4.382;2022-11-20T07:34:24;13.40;74.10
34137;DHT22;20414;50.860;4.382;2022-11-20T07:36:50;13.40;74.10
34137;DHT22;20414;50.860;4.382;2022-11-20T07:39:16;13.40;74.10
34137;DHT22;20414;50.860;4.382;2022-11-20T07:41:41;13.40;74.10
34137;DHT22;20414;50.860;4.382;2022-11-20T07:44:07;13.40;74.10
34137;DHT22;20414;50.860;4.382;2022-11-20T07:46:32;13.40;74.10
34137;DHT22;20414;50.860;4.382;2022-11-20T07:48:58;13.30;74.10
34137;DHT22;20414;50.860;4.382;2022-11-20T07:51:24;13.40;74.10
34137;DHT22;20414;50.860;4.382;2022-11-20T07:53:52;13.30;74.00
34137;DHT22;20414;50.860;4.382;2022-11-20T07:56:17;13.40;74.10
34137;DHT22;20414;50.860;4.382;2022-11-20T07:58:43;13.40;74.10
34137;DHT22;20414;50.860;4.382;2022-11-20T08:01:08;13.40;74.10
34137;DHT22;20414;50.860;4.382;2022-11-20T08:03:35;13.40;74.10
34137;DHT22;20414;50.860;4.382;2022-11-20T08:06:03;13.40;74.10
34137;DHT22;20414;50.860;4.382;2022-11-20T08:08:29;13.30;74.00
34137;DHT22;20414;50.860;4.382;2022-11-20T08:10:57;13.40;74.10
34137;DHT22;20414;50.860;4.382;2022-11-20T08:13:43;13.40;74.10
34137;DHT22;20414;50.860;4.382;2022-11-20T08:16:27;13.40;74.10
34137;DHT22;20414;50.860;4.382;2022-11-20T08:18:53;13.40;74.10
34137;DHT22;20414;50.860;4.382;2022-11-20T08:21:19;13.40;74.10
34137;DHT22;20414;50.860;4.382;2022-11-20T08:23:45;13.30;74.00
34137;DHT22;20414;50.860;4.382;2022-11-20T08:26:10;13.40;74.10
34137;DHT22;20414;50.860;4.382;2022-11-20T08:28:36;13.30;74.00
34137;DHT22;20414;50.860;4.382;2022-11-20T08:31:02;13.40;74.10
34137;DHT22;20414;50.860;4.382;2022-11-20T08:33:29;13.40;74.10
34137;DHT22;20414;50.860;4.382;2022-11-20T08:36:05;13.40;74.10
34137;DHT22;20414;50.860;4.382;2022-11-20T08:38:32;13.30;74.10
34137;DHT22;20414;50.860;4.382;2022-11-20T08:40:59;13.30;74.10
34137;DHT22;20414;50.860;4.382;2022-11-20T08:43:43;13.30;74.10
34137;DHT22;20414;50.860;4.382;2022-11-20T08:46:09;13.40;74.10
34137;DHT22;20414;50.860;4.382;2022-11-20T08:48:35;13.30;74.00
34137;DHT22;20414;50.860;4.382;2022-11-20T08:51:00;13.30;74.10
34137;DHT22;20414;50.860;4.382;2022-11-20T08:53:27;13.30;74.10
34137;DHT22;20414;50.860;4.382;2022-11-20T08:55:53;13.30;74.10
34137;DHT22;20414;50.860;4.382;2022-11-20T08:58:18;13.30;74.10
34137;DHT22;20414;50.860;4.382;2022-11-20T09:00:44;13.30;74.10
34137;DHT22;20414;50.860;4.382;2022-11-20T09:03:09;13.40;74.10
34137;DHT22;20414;50.860;4.382;2022-11-20T09:05:35;13.40;74.10
34137;DHT22;20414;50.860;4.382;2022-11-20T09:08:01;13.30;74.10
34137;DHT22;20414;50.860;4.382;2022-11-20T09:10:27;13.30;74.10
34137;DHT22;20414;50.860;4.382;2022-11-20T09:12:53;13.30;74.10
34137;DHT22;20414;50.860;4.382;2022-11-20T09:15:20;13.30;74.10
34137;DHT22;20414;50.860;4.382;2022-11-20T09:17:56;13.40;74.10
34137;DHT22;20414;50.860;4.382;2022-11-20T09:20:22;13.40;74.10
34137;DHT22;20414;50.860;4.382;2022-11-20T09:22:47;13.30;74.10
34137;DHT22;20414;50.860;4.382;2022-11-20T09:25:13;13.30;74.00
34137;DHT22;20414;50.860;4.382;2022-11-20T09:27:39;13.30;74.00
34137;DHT22;20414;50.860;4.382;2022-11-20T09:30:07;13.30;74.70
34137;DHT22;20414;50.860;4.382;2022-11-20T09:32:33;13.30;74.00
34137;DHT22;20414;50.860;4.382;2022-11-20T09:34:59;13.30;74.00
34137;DHT22;20414;50.860;4.382;2022-11-20T09:37:24;13.30;74.00
34137;DHT22;20414;50.860;4.382;2022-11-20T09:39:50;13.30;74.00
34137;DHT22;20414;50.860;4.382;2022-11-20T09:42:45;13.30;74.00
34137;DHT22;20414;50.860;4.382;2022-11-20T09:45:21;13.30;74.00
34137;DHT22;20414;50.860;4.382;2022-11-20T09:48:07;13.40;74.00
34137;DHT22;20414;50.860;4.382;2022-11-20T09:55:48;13.30;74.00
34137;DHT22;20414;50.860;4.382;2022-11-20T09:58:33;13.30;73.90
34137;DHT22;20414;50.860;4.382;2022-11-20T10:01:12;13.30;74.00
34137;DHT22;20414;50.860;4.382;2022-11-20T10:03:54;13.30;74.00
34137;DHT22;20414;50.860;4.382;2022-11-20T10:22:46;13.30;73.90
34137;DHT22;20414;50.860;4.382;2022-11-20T10:25:39;13.40;74.00
34137;DHT22;20414;50.860;4.382;2022-11-20T10:31:11;13.30;73.80
34137;DHT22;20414;50.860;4.382;2022-11-20T10:33:41;13.40;73.80
34137;DHT22;20414;50.860;4.382;2022-11-20T10:38:50;13.40;73.80
34137;DHT22;20414;50.860;4.382;2022-11-20T10:41:24;13.40;73.80
34137;DHT22;20414;50.860;4.382;2022-11-20T10:44:17;13.40;73.80
34137;DHT22;20414;50.860;4.382;2022-11-20T10:47:01;13.40;73.80
34137;DHT22;20414;50.860;4.382;2022-11-20T10:49:27;13.40;73.80
34137;DHT22;20414;50.860;4.382;2022-11-20T11:00:18;13.70;73.00
34137;DHT22;20414;50.860;4.382;2022-11-20T11:02:54;13.90;72.30
34137;DHT22;20414;50.860;4.382;2022-11-20T11:07:49;14.20;71.20
34137;DHT22;20414;50.860;4.382;2022-11-20T11:12:49;14.40;70.50
34137;DHT22;20414;50.860;4.382;2022-11-20T11:15:29;14.50;70.20
34137;DHT22;20414;50.860;4.382;2022-11-20T11:17:55;14.60;70.00
34137;DHT22;20414;50.860;4.382;2022-11-20T11:20:25;14.60;69.80
34137;DHT22;20414;50.860;4.382;2022-11-20T11:22:52;14.70;69.80
34137;DHT22;20414;50.860;4.382;2022-11-20T11:25:36;14.80;69.60
34137;DHT22;20414;50.860;4.382;2022-11-20T11:28:03;14.80;69.60
34137;DHT22;20414;50.860;4.382;2022-11-20T11:30:40;14.90;69.40
34137;DHT22;20414;50.860;4.382;2022-11-20T11:33:10;14.90;69.30
34137;DHT22;20414;50.860;4.382;2022-11-20T11:35:47;15.00;69.20
34137;DHT22;20414;50.860;4.382;2022-11-20T11:38:17;15.00;69.10
34137;DHT22;20414;50.860;4.382;2022-11-20T11:40:46;15.10;69.10
34137;DHT22;20414;50.860;4.382;2022-11-20T11:43:26;15.10;69.10
34137;DHT22;20414;50.860;4.382;2022-11-20T11:46:22;15.20;69.00
34137;DHT22;20414;50.860;4.382;2022-11-20T11:54:34;15.30;68.70
34137;DHT22;20414;50.860;4.382;2022-11-20T11:57:09;15.30;68.70
34137;DHT22;20414;50.860;4.382;2022-11-20T12:00:00;15.40;68.70
34137;DHT22;20414;50.860;4.382;2022-11-20T12:02:57;15.40;68.50
34137;DHT22;20414;50.860;4.382;2022-11-20T12:05:49;15.50;68.50
34137;DHT22;20414;50.860;4.382;2022-11-20T12:14:40;15.60;68.40
34137;DHT22;20414;50.860;4.382;2022-11-20T12:17:11;15.60;68.40
34137;DHT22;20414;50.860;4.382;2022-11-20T12:19:37;15.70;68.30
34137;DHT22;20414;50.860;4.382;2022-11-20T12:30:27;15.80;68.20
34137;DHT22;20414;50.860;4.382;2022-11-20T12:33:03;15.80;68.10
34137;DHT22;20414;50.860;4.382;2022-11-20T12:35:39;15.90;68.90
34137;DHT22;20414;50.860;4.382;2022-11-20T12:43:23;16.00;68.10
34137;DHT22;20414;50.860;4.382;2022-11-20T12:46:28;15.90;68.00
34137;DHT22;20414;50.860;4.382;2022-11-20T12:49:34;16.00;68.00
34137;DHT22;20414;50.860;4.382;2022-11-20T13:05:31;16.20;68.00
34137;DHT22;20414;50.860;4.382;2022-11-20T13:08:02;16.30;68.20
34137;DHT22;20414;50.860;4.382;2022-11-20T13:16:47;16.40;67.90
34137;DHT22;20414;50.860;4.382;2022-11-20T13:19:16;16.40;67.70
34137;DHT22;20414;50.860;4.382;2022-11-20T13:21:45;16.40;67.70
34137;DHT22;20414;50.860;4.382;2022-11-20T13:29:29;16.40;67.90
34137;DHT22;20414;50.860;4.382;2022-11-20T13:34:55;16.40;67.90
34137;DHT22;20414;50.860;4.382;2022-11-20T13:37:36;16.40;67.90
34137;DHT22;20414;50.860;4.382;2022-11-20T13:40:22;16.40;67.90
34137;DHT22;20414;50.860;4.382;2022-11-20T13:42:55;16.40;68.00
34137;DHT22;20414;50.860;4.382;2022-11-20T13:45:27;16.40;68.00
34137;DHT22;20414;50.860;4.382;2022-11-20T13:47:55;16.40;68.00
34137;DHT22;20414;50.860;4.382;2022-11-20T13:56:25;16.30;68.90
34137;DHT22;20414;50.860;4.382;2022-11-20T14:01:51;16.30;68.30
34137;DHT22;20414;50.860;4.382;2022-11-20T14:04:26;16.30;68.30
34137;DHT22;20414;50.860;4.382;2022-11-20T14:06:52;16.30;68.30
34137;DHT22;20414;50.860;4.382;2022-11-20T14:09:32;16.30;68.40
34137;DHT22;20414;50.860;4.382;2022-11-20T14:11:58;16.30;68.40
34137;DHT22;20414;50.860;4.382;2022-11-20T14:14:26;16.30;68.40
34137;DHT22;20414;50.860;4.382;2022-11-20T14:17:03;16.30;68.50
34137;DHT22;20414;50.860;4.382;2022-11-20T14:19:30;16.20;68.50
34137;DHT22;20414;50.860;4.382;2022-11-20T14:24:48;16.20;68.60
34137;DHT22;20414;50.860;4.382;2022-11-20T14:27:19;16.20;68.60
34137;DHT22;20414;50.860;4.382;2022-11-20T14:29:47;16.20;68.80
34137;DHT22;20414;50.860;4.382;2022-11-20T14:32:19;16.20;68.70
34137;DHT22;20414;50.860;4.382;2022-11-20T14:34:48;16.20;68.90
34137;DHT22;20414;50.860;4.382;2022-11-20T14:37:24;16.20;68.70
34137;DHT22;20414;50.860;4.382;2022-11-20T14:39:55;16.20;68.80
34137;DHT22;20414;50.860;4.382;2022-11-20T14:42:26;16.10;68.80
34137;DHT22;20414;50.860;4.382;2022-11-20T14:44:55;16.10;68.90
34137;DHT22;20414;50.860;4.382;2022-11-20T14:47:25;16.10;68.80
34137;DHT22;20414;50.860;4.382;2022-11-20T14:49:53;16.10;69.20
34137;DHT22;20414;50.860;4.382;2022-11-20T14:52:23;16.10;69.00
34137;DHT22;20414;50.860;4.382;2022-11-20T14:54:55;16.10;69.00
34137;DHT22;20414;50.860;4.382;2022-11-20T14:57:30;16.10;69.00
34137;DHT22;20414;50.860;4.382;2022-11-20T15:02:45;16.10;69.10
34137;DHT22;20414;50.860;4.382;2022-11-20T15:05:10;16.10;69.20
34137;DHT22;20414;50.860;4.382;2022-11-20T15:07:39;16.00;69.10
34137;DHT22;20414;50.860;4.382;2022-11-20T15:10:29;16.00;69.00
34137;DHT22;20414;50.860;4.382;2022-11-20T15:12:55;16.00;69.10
34137;DHT22;20414;50.860;4.382;2022-11-20T15:15:33;16.00;69.10
34137;DHT22;20414;50.860;4.382;2022-11-20T15:18:00;16.00;69.10
34137;DHT22;20414;50.860;4.382;2022-11-20T15:20:28;16.00;69.00
34137;DHT22;20414;50.860;4.382;2022-11-20T15:22:55;16.00;69.10
34137;DHT22;20414;50.860;4.382;2022-11-20T15:25:21;16.00;69.10
34137;DHT22;20414;50.860;4.382;2022-11-20T15:27:52;16.00;69.10
34137;DHT22;20414;50.860;4.382;2022-11-20T15:30:19;16.00;69.00
34137;DHT22;20414;50.860;4.382;2022-11-20T15:32:46;16.00;69.00
34137;DHT22;20414;50.860;4.382;2022-11-20T15:35:13;16.00;69.00
34137;DHT22;20414;50.860;4.382;2022-11-20T15:37:39;16.00;69.00
34137;DHT22;20414;50.860;4.382;2022-11-20T15:40:06;15.90;69.00
34137;DHT22;20414;50.860;4.382;2022-11-20T15:42:32;16.00;69.00
34137;DHT22;20414;50.860;4.382;2022-11-20T15:44:58;16.00;69.10
34137;DHT22;20414;50.860;4.382;2022-11-20T15:47:34;15.90;69.00
34137;DHT22;20414;50.860;4.382;2022-11-20T15:50:00;16.00;69.10
34137;DHT22;20414;50.860;4.382;2022-11-20T15:52:26;15.90;69.00
34137;DHT22;20414;50.860;4.382;2022-11-20T15:54:52;15.90;69.00
34137;DHT22;20414;50.860;4.382;2022-11-20T15:57:17;15.90;69.10
34137;DHT22;20414;50.860;4.382;2022-11-20T15:59:43;15.90;69.10
34137;DHT22;20414;50.860;4.382;2022-11-20T16:02:11;15.90;69.10
34137;DHT22;20414;50.860;4.382;2022-11-20T16:04:37;15.90;69.10
34137;DHT22;20414;50.860;4.382;2022-11-20T16:07:03;15.90;69.10
34137;DHT22;20414;50.860;4.382;2022-11-20T16:09:28;15.80;69.00
34137;DHT22;20414;50.860;4.382;2022-11-20T16:11:54;15.90;69.10
34137;DHT22;20414;50.860;4.382;2022-11-20T16:14:19;15.80;69.00
34137;DHT22;20414;50.860;4.382;2022-11-20T16:17:04;15.80;69.00
34137;DHT22;20414;50.860;4.382;2022-11-20T16:19:30;15.80;69.10
34137;DHT22;20414;50.860;4.382;2022-11-20T16:21:57;15.80;69.00
34137;DHT22;20414;50.860;4.382;2022-11-20T16:24:23;15.80;69.00
34137;DHT22;20414;50.860;4.382;2022-11-20T16:26:48;15.80;69.20
34137;DHT22;20414;50.860;4.382;2022-11-20T16:29:14;15.80;69.10
34137;DHT22;20414;50.860;4.382;2022-11-20T16:31:40;15.80;69.10
34137;DHT22;20414;50.860;4.382;2022-11-20T16:34:07;15.80;69.10
34137;DHT22;20414;50.860;4.382;2022-11-20T16:36:33;15.80;69.10
34137;DHT22;20414;50.860;4.382;2022-11-20T16:39:01;15.80;69.20
34137;DHT22;20414;50.860;4.382;2022-11-20T16:41:29;15.70;69.00
34137;DHT22;20414;50.860;4.382;2022-11-20T16:43:57;15.80;69.10
34137;DHT22;20414;50.860;4.382;2022-11-20T16:46:25;15.70;69.10
34137;DHT22;20414;50.860;4.382;2022-11-20T16:48:58;15.70;69.10
34137;DHT22;20414;50.860;4.382;2022-11-20T16:51:26;15.70;69.10
34137;DHT22;20414;50.860;4.382;2022-11-20T16:53:53;15.70;69.20
34137;DHT22;20414;50.860;4.382;2022-11-20T16:56:24;15.70;69.20
34137;DHT22;20414;50.860;4.382;2022-11-20T16:58:50;15.70;69.20
34137;DHT22;20414;50.860;4.382;2022-11-20T17:01:18;15.70;69.20
34137;DHT22;20414;50.860;4.382;2022-11-20T17:03:46;15.70;69.20
34137;DHT22;20414;50.860;4.382;2022-11-20T17:06:17;15.70;69.20
34137;DHT22;20414;50.860;4.382;2022-11-20T17:08:43;15.70;69.30
34137;DHT22;20414;50.860;4.382;2022-11-20T17:11:11;15.70;69.30
34137;DHT22;20414;50.860;4.382;2022-11-20T17:13:37;15.70;69.30
34137;DHT22;20414;50.860;4.382;2022-11-20T17:16:05;15.70;69.30
34137;DHT22;20414;50.860;4.382;2022-11-20T17:18:31;15.70;69.40
34137;DHT22;20414;50.860;4.382;2022-11-20T17:20:57;15.70;69.40
34137;DHT22;20414;50.860;4.382;2022-11-20T17:23:27;15.70;69.40
34137;DHT22;20414;50.860;4.382;2022-11-20T17:26:03;15.60;69.40
34137;DHT22;20414;50.860;4.382;2022-11-20T17:28:30;15.70;69.50
34137;DHT22;20414;50.860;4.382;2022-11-20T17:31:08;15.60;69.40
34137;DHT22;20414;50.860;4.382;2022-11-20T17:33:35;15.60;69.40
34137;DHT22;20414;50.860;4.382;2022-11-20T17:36:02;15.60;69.50
34137;DHT22;20414;50.860;4.382;2022-11-20T17:38:28;15.60;69.50
34137;DHT22;20414;50.860;4.382;2022-11-20T17:41:04;15.60;69.60